createdAt,value
2018-08-07T00:00:37.442Z,20.77
2018-08-07T00:03:07.224Z,22.67
2018-08-07T00:05:36.142Z,23.50
2018-08-07T00:08:06.275Z,21.80
2018-08-07T00:10:35.251Z,21.23
2018-08-07T00:13:04.203Z,23.23
2018-08-07T00:15:33.060Z,23.80
2018-08-07T00:18:02.296Z,21.23
2018-08-07T00:20:31.269Z,21.20
2018-08-07T00:23:00.167Z,22.77
2018-08-07T00:25:29.059Z,22.03
2018-08-07T00:27:57.927Z,21.87
2018-08-07T00:30:26.881Z,23.67
2018-08-07T00:32:55.838Z,20.40
2018-08-07T00:35:24.738Z,22.93
2018-08-07T00:37:53.697Z,21.70
2018-08-07T00:40:22.511Z,21.53
2018-08-07T00:42:51.421Z,21.70
2018-08-07T00:45:21.177Z,22.63
2018-08-07T00:47:50.495Z,20.33
2018-08-07T00:50:20.931Z,22.53
2018-08-07T00:52:50.730Z,22.10
2018-08-07T00:55:20.417Z,21.37
2018-08-07T00:57:49.930Z,20.10
2018-08-07T01:00:18.938Z,20.90
2018-08-07T01:02:47.820Z,23.90
2018-08-07T01:05:17.435Z,21.37
2018-08-07T01:07:46.451Z,21.13
2018-08-07T01:10:16.866Z,23.00
2018-08-07T01:12:45.918Z,22.17
2018-08-07T01:15:18.122Z,20.53
2018-08-07T01:17:47.283Z,23.17
2018-08-07T01:20:20.322Z,20.37
2018-08-07T01:22:49.243Z,22.33
2018-08-07T01:25:24.399Z,22.03
2018-08-07T01:27:53.367Z,21.23
2018-08-07T01:30:26.750Z,21.43
2018-08-07T01:32:56.119Z,23.00
2018-08-07T01:35:26.511Z,22.10
2018-08-07T01:37:55.514Z,23.07
2018-08-07T01:40:24.403Z,21.30
2018-08-07T01:42:53.307Z,21.67
2018-08-07T01:45:22.203Z,23.10
2018-08-07T01:47:51.072Z,21.53
2018-08-07T01:50:19.971Z,22.93
2018-08-07T01:52:48.714Z,21.63
2018-08-07T01:55:21.779Z,21.10
2018-08-07T01:57:50.666Z,22.90
2018-08-07T02:00:20.010Z,21.73
2018-08-07T02:02:49.378Z,23.60
2018-08-07T02:05:18.391Z,23.73
2018-08-07T02:07:47.587Z,22.47
2018-08-07T02:10:18.387Z,20.97
2018-08-07T02:12:47.331Z,22.47
2018-08-07T02:15:16.590Z,20.70
2018-08-07T02:17:45.404Z,23.20
2018-08-07T02:20:16.115Z,23.33
2018-08-07T02:22:45.612Z,22.00
2018-08-07T02:25:16.047Z,22.27
2018-08-07T02:27:45.463Z,21.40
2018-08-07T02:30:15.462Z,21.97
2018-08-07T02:32:44.366Z,23.13
2018-08-07T02:35:14.346Z,22.80
2018-08-07T02:37:44.186Z,22.93
2018-08-07T02:40:14.456Z,22.23
2018-08-07T02:42:43.479Z,21.90
2018-08-07T02:45:14.952Z,23.73
2018-08-07T02:47:44.449Z,22.97
2018-08-07T02:50:16.070Z,22.43
2018-08-07T02:52:45.110Z,22.93
2018-08-07T02:55:14.033Z,23.77
2018-08-07T02:57:43.703Z,23.17
2018-08-07T03:00:18.552Z,22.80
2018-08-07T03:02:47.736Z,23.50
2018-08-07T03:05:17.526Z,22.10
2018-08-07T03:07:46.606Z,21.90
2018-08-07T03:10:15.551Z,24.40
2018-08-07T03:12:44.407Z,22.43
2018-08-07T03:15:18.873Z,23.47
2018-08-07T03:17:48.434Z,21.73
2018-08-07T03:20:17.911Z,22.63
2018-08-07T03:22:46.916Z,22.57
2018-08-07T03:25:15.735Z,22.97
2018-08-07T03:27:45.244Z,23.90
2018-08-07T03:30:17.280Z,24.40
2018-08-07T03:32:46.831Z,22.00
2018-08-07T03:35:15.702Z,23.17
2018-08-07T03:37:44.614Z,22.63
2018-08-07T03:40:15.651Z,24.10
2018-08-07T03:42:44.774Z,22.77
2018-08-07T03:45:17.502Z,22.83
2018-08-07T03:47:46.911Z,24.77
2018-08-07T03:50:15.872Z,21.70
2018-08-07T03:52:44.756Z,23.53
2018-08-07T03:55:15.990Z,23.67
2018-08-07T03:57:45.274Z,25.30
2018-08-07T04:00:17.531Z,22.70
2018-08-07T04:02:46.515Z,23.00
2018-08-07T04:05:15.855Z,23.93
2018-08-07T04:07:44.700Z,23.63
2018-08-07T04:10:15.852Z,23.00
2018-08-07T04:12:44.821Z,22.33
2018-08-07T04:15:15.834Z,23.83
2018-08-07T04:17:44.951Z,23.97
2018-08-07T04:20:16.735Z,23.93
2018-08-07T04:22:45.717Z,25.00
2018-08-07T04:25:14.627Z,25.00
2018-08-07T04:27:43.883Z,24.20
2018-08-07T04:30:16.410Z,24.37
2018-08-07T04:32:45.578Z,24.83
2018-08-07T04:35:15.290Z,24.53
2018-08-07T04:37:44.382Z,23.30
2018-08-07T04:40:13.294Z,26.07
2018-08-07T04:42:42.357Z,24.00
2018-08-07T04:45:13.128Z,24.00
2018-08-07T04:47:42.855Z,25.07
2018-08-07T04:50:11.609Z,24.73
2018-08-07T04:52:40.707Z,26.80
2018-08-07T04:55:10.609Z,25.10
2018-08-07T04:57:39.554Z,24.73
2018-08-07T05:00:14.939Z,25.87
2018-08-07T05:02:44.655Z,24.57
2018-08-07T05:05:13.598Z,25.20
2018-08-07T05:07:42.400Z,27.67
2018-08-07T05:10:14.608Z,24.17
2018-08-07T05:12:44.222Z,22.67
2018-08-07T05:15:13.642Z,25.77
2018-08-07T05:17:44.151Z,25.13
2018-08-07T05:20:13.935Z,25.87
2018-08-07T05:22:42.835Z,26.50
2018-08-07T05:25:12.366Z,26.53
2018-08-07T05:27:41.345Z,26.97
2018-08-07T05:30:12.816Z,25.23
2018-08-07T05:32:42.116Z,27.00
2018-08-07T05:35:12.410Z,24.97
2018-08-07T05:37:41.410Z,25.80
2018-08-07T05:40:10.812Z,25.47
2018-08-07T05:42:40.515Z,25.77
2018-08-07T05:45:11.812Z,26.07
2018-08-07T05:47:40.706Z,25.90
2018-08-07T05:50:13.073Z,25.60
2018-08-07T05:52:45.878Z,23.17
2018-08-07T05:55:14.944Z,25.20
2018-08-07T05:57:43.790Z,25.10
2018-08-07T06:00:17.266Z,27.40
2018-08-07T06:02:47.208Z,27.20
2018-08-07T06:05:16.514Z,25.00
2018-08-07T06:07:45.775Z,27.17
2018-08-07T06:10:14.673Z,25.30
2018-08-07T06:12:43.646Z,26.37
2018-08-07T06:15:15.467Z,23.67
2018-08-07T06:17:45.181Z,24.73
2018-08-07T06:20:14.255Z,27.10
2018-08-07T06:22:43.338Z,25.87
2018-08-07T06:25:12.267Z,27.10
2018-08-07T06:27:41.255Z,25.63
2018-08-07T06:30:18.842Z,25.90
2018-08-07T06:32:48.544Z,27.30
2018-08-07T06:35:18.072Z,26.77
2018-08-07T06:37:47.008Z,22.40
2018-08-07T06:40:15.928Z,27.97
2018-08-07T06:42:44.860Z,26.87
2018-08-07T06:45:15.652Z,27.17
2018-08-07T06:47:44.724Z,26.00
2018-08-07T06:50:16.262Z,27.27
2018-08-07T06:52:46.045Z,26.00
2018-08-07T06:55:15.086Z,25.73
2018-08-07T06:57:44.094Z,25.23
2018-08-07T07:00:23.862Z,27.10
2018-08-07T07:02:53.785Z,26.00
2018-08-07T07:05:22.740Z,27.73
2018-08-07T07:07:51.677Z,24.47
2018-08-07T07:10:20.600Z,26.27
2018-08-07T07:12:49.505Z,27.50
2018-08-07T07:15:18.426Z,26.70
2018-08-07T07:17:47.958Z,28.50
2018-08-07T07:20:18.198Z,24.97
2018-08-07T07:22:48.275Z,25.33
2018-08-07T07:25:17.266Z,28.70
2018-08-07T07:27:46.158Z,26.67
2018-08-07T07:30:19.028Z,25.17
2018-08-07T07:32:49.364Z,26.13
2018-08-07T07:35:18.549Z,25.67
2018-08-07T07:37:47.791Z,25.77
2018-08-07T07:40:16.690Z,25.80
2018-08-07T07:42:45.542Z,24.20
2018-08-07T07:45:16.474Z,24.07
2018-08-07T07:47:45.448Z,24.47
2018-08-07T07:50:16.974Z,26.50
2018-08-07T07:52:45.861Z,25.63
2018-08-07T07:55:15.998Z,26.27
2018-08-07T07:57:44.926Z,26.00
2018-08-07T08:00:21.446Z,25.73
2018-08-07T08:02:50.787Z,25.83
2018-08-07T08:05:21.270Z,26.33
2018-08-07T08:07:50.423Z,25.53
2018-08-07T08:10:19.350Z,28.07
2018-08-07T08:12:48.284Z,26.67
2018-08-07T08:15:18.268Z,27.67
2018-08-07T08:17:47.745Z,28.80
2018-08-07T08:20:21.237Z,27.13
2018-08-07T08:22:51.048Z,23.97
2018-08-07T08:25:20.032Z,24.85
2018-08-07T08:27:49.220Z,26.40
2018-08-07T08:30:18.359Z,25.40
2018-08-07T08:32:47.363Z,24.37
2018-08-07T08:35:17.492Z,24.27
2018-08-07T08:37:46.819Z,25.70
2018-08-07T08:40:18.142Z,25.23
2018-08-07T08:42:47.188Z,30.00
2018-08-07T08:45:18.991Z,28.80
2018-08-07T08:47:51.396Z,31.60
2018-08-07T08:50:21.007Z,24.80
2018-08-07T08:52:50.042Z,26.03
2018-08-07T08:55:18.943Z,28.97
2018-08-07T08:57:47.863Z,26.10
2018-08-07T09:00:21.929Z,25.37
2018-08-07T09:02:51.102Z,25.87
2018-08-07T09:05:19.977Z,25.63
2018-08-07T09:07:48.943Z,25.47
2018-08-07T09:10:27.623Z,25.20
2018-08-07T09:12:57.570Z,26.50
2018-08-07T09:15:26.369Z,26.43
2018-08-07T09:17:55.211Z,24.83
2018-08-07T09:20:26.526Z,25.47
2018-08-07T09:22:55.960Z,25.10
2018-08-07T09:25:26.460Z,25.40
2018-08-07T09:27:55.344Z,25.90
2018-08-07T09:30:25.380Z,26.47
2018-08-07T09:32:55.039Z,24.73
2018-08-07T09:35:24.195Z,23.97
2018-08-07T09:37:53.622Z,23.60
2018-08-07T09:40:22.887Z,25.20
2018-08-07T09:42:52.965Z,23.57
2018-08-07T09:45:27.279Z,25.30
2018-08-07T09:47:56.166Z,23.90
2018-08-07T09:50:25.170Z,23.23
2018-08-07T09:52:54.011Z,24.07
2018-08-07T09:55:22.916Z,24.27
2018-08-07T09:57:51.886Z,24.93
2018-08-07T10:00:27.077Z,24.97
2018-08-07T10:02:59.706Z,24.57
2018-08-07T10:05:30.415Z,24.63
2018-08-07T10:07:59.422Z,25.53
2018-08-07T10:10:29.225Z,25.93
2018-08-07T10:12:58.180Z,24.80
2018-08-07T10:15:27.201Z,24.27
2018-08-07T10:17:56.165Z,23.07
2018-08-07T10:20:25.119Z,24.77
2018-08-07T10:22:54.124Z,25.00
2018-08-07T10:25:23.072Z,26.43
2018-08-07T10:27:52.028Z,25.97
2018-08-07T10:30:22.815Z,24.60
2018-08-07T10:32:52.690Z,25.13
2018-08-07T10:35:21.655Z,25.67
2018-08-07T10:37:50.614Z,26.73
2018-08-07T10:40:22.076Z,24.57
2018-08-07T10:42:50.956Z,24.37
2018-08-07T10:45:21.296Z,25.33
2018-08-07T10:47:50.416Z,27.13
2018-08-07T10:50:23.665Z,26.13
2018-08-07T10:52:52.794Z,25.57
2018-08-07T10:55:22.462Z,25.70
2018-08-07T10:57:53.619Z,25.17
2018-08-07T11:00:26.392Z,27.70
2018-08-07T11:02:56.027Z,25.97
2018-08-07T11:05:25.511Z,25.20
2018-08-07T11:07:54.466Z,23.63
2018-08-07T11:10:23.513Z,23.80
2018-08-07T11:12:53.102Z,24.27
2018-08-07T11:15:26.109Z,23.63
2018-08-07T11:17:56.275Z,30.40
2018-08-07T11:20:25.451Z,27.30
2018-08-07T11:22:55.998Z,25.90
2018-08-07T11:25:25.889Z,25.50
2018-08-07T11:27:54.802Z,23.83
2018-08-07T11:30:24.964Z,26.10
2018-08-07T11:32:54.904Z,24.93
2018-08-07T11:35:24.482Z,24.10
2018-08-07T11:37:55.387Z,26.30
2018-08-07T11:40:25.092Z,25.87
2018-08-07T11:42:54.648Z,24.20
2018-08-07T11:45:26.668Z,24.80
2018-08-07T11:47:55.587Z,23.23
2018-08-07T11:50:25.950Z,22.37
2018-08-07T11:52:54.863Z,22.87
2018-08-07T11:55:24.839Z,22.33
2018-08-07T11:57:54.558Z,23.03
2018-08-07T12:00:31.385Z,21.80
2018-08-07T12:03:00.409Z,23.43
2018-08-07T12:05:29.295Z,22.53
2018-08-07T12:07:58.244Z,22.93
2018-08-07T12:10:27.112Z,24.67
2018-08-07T12:12:56.051Z,25.30
2018-08-07T12:15:25.383Z,23.10
2018-08-07T12:17:54.763Z,25.03
2018-08-07T12:20:23.607Z,23.33
2018-08-07T12:22:52.570Z,24.93
2018-08-07T12:25:21.584Z,26.73
2018-08-07T12:27:50.543Z,25.40
2018-08-07T12:30:26.349Z,24.53
2018-08-07T12:32:55.508Z,26.27
2018-08-07T12:35:24.540Z,24.10
2018-08-07T12:37:53.596Z,24.55
2018-08-07T12:40:25.171Z,24.50
2018-08-07T12:43:00.164Z,25.33
2018-08-07T12:45:29.370Z,25.73
2018-08-07T12:47:58.367Z,26.03
2018-08-07T12:50:27.354Z,26.07
2018-08-07T12:52:56.342Z,25.73
2018-08-07T12:55:25.235Z,24.77
2018-08-07T12:57:54.426Z,25.67
2018-08-07T13:00:28.287Z,25.00
2018-08-07T13:02:57.211Z,24.87
2018-08-07T13:05:26.146Z,25.83
2018-08-07T13:07:55.207Z,26.20
2018-08-07T13:10:24.928Z,26.63
2018-08-07T13:12:54.851Z,26.17
2018-08-07T13:15:23.821Z,23.93
2018-08-07T13:17:52.711Z,26.53
2018-08-07T13:20:21.662Z,25.70
2018-08-07T13:22:50.622Z,25.10
2018-08-07T13:25:21.053Z,24.77
2018-08-07T13:27:49.934Z,24.77
2018-08-07T13:30:23.068Z,26.13
2018-08-07T13:32:52.026Z,22.53
2018-08-07T13:35:21.063Z,24.87
2018-08-07T13:37:50.597Z,24.53
2018-08-07T13:40:20.735Z,24.70
2018-08-07T13:42:49.712Z,24.43
2018-08-07T13:45:21.720Z,25.00
2018-08-07T13:47:50.786Z,24.77
2018-08-07T13:50:23.374Z,25.03
2018-08-07T13:52:52.883Z,23.97
2018-08-07T13:55:23.386Z,24.23
2018-08-07T13:57:52.376Z,26.07
2018-08-07T14:00:24.608Z,23.50
2018-08-07T14:02:54.480Z,22.27
2018-08-07T14:05:24.565Z,24.67
2018-08-07T14:07:55.834Z,25.17
2018-08-07T14:10:26.197Z,23.47
2018-08-07T14:12:55.103Z,24.00
2018-08-07T14:15:26.243Z,22.00
2018-08-07T14:17:55.168Z,22.87
2018-08-07T14:20:24.186Z,21.10
2018-08-07T14:22:53.095Z,24.57
2018-08-07T14:25:25.095Z,24.10
2018-08-07T14:27:54.072Z,21.23
2018-08-07T14:30:29.923Z,23.83
2018-08-07T14:33:01.517Z,24.30
2018-08-07T14:35:30.366Z,21.83
2018-08-07T14:37:59.215Z,22.50
2018-08-07T14:40:28.422Z,29.67
2018-08-07T14:42:57.398Z,25.80
2018-08-07T14:45:27.875Z,18.40
2018-08-07T14:48:00.280Z,11.50
2018-08-07T14:50:29.939Z,12.27
2018-08-07T14:52:58.946Z,12.90
2018-08-07T14:55:27.839Z,9.10
2018-08-07T14:57:56.719Z,11.20
2018-08-07T15:00:27.926Z,10.30
2018-08-07T15:02:56.888Z,10.17
2018-08-07T15:05:25.648Z,10.03
2018-08-07T15:07:54.583Z,10.53
2018-08-07T15:10:25.732Z,10.97
2018-08-07T15:12:54.666Z,10.00
2018-08-07T15:15:28.252Z,11.10
2018-08-07T15:17:57.131Z,11.73
2018-08-07T15:20:28.269Z,11.97
2018-08-07T15:22:57.523Z,13.70
2018-08-07T15:25:26.405Z,15.17
2018-08-07T15:27:55.368Z,14.87
2018-08-07T15:30:25.371Z,14.37
2018-08-07T15:32:54.578Z,14.70
2018-08-07T15:35:25.168Z,12.30
2018-08-07T15:37:54.062Z,11.07
2018-08-07T15:40:23.196Z,11.83
2018-08-07T15:42:52.096Z,12.57
2018-08-07T15:45:22.970Z,13.50
2018-08-07T15:47:52.983Z,13.93
2018-08-07T15:50:22.723Z,14.33
2018-08-07T15:52:53.390Z,17.03
2018-08-07T15:55:24.354Z,14.20
2018-08-07T15:57:54.044Z,14.17
2018-08-07T16:00:27.131Z,11.70
2018-08-07T16:02:56.134Z,11.80
2018-08-07T16:05:25.484Z,11.20
2018-08-07T16:07:54.466Z,11.87
2018-08-07T16:10:24.296Z,9.93
2018-08-07T16:12:54.555Z,10.10
2018-08-07T16:15:23.524Z,10.70
2018-08-07T16:17:53.057Z,11.20
2018-08-07T16:20:22.447Z,10.53
2018-08-07T16:22:51.404Z,10.03
2018-08-07T16:25:20.943Z,11.17
2018-08-07T16:27:50.224Z,10.13
2018-08-07T16:30:21.470Z,10.27
2018-08-07T16:32:50.352Z,10.73
2018-08-07T16:35:19.287Z,10.87
2018-08-07T16:37:48.790Z,12.17
2018-08-07T16:40:19.839Z,11.40
2018-08-07T16:42:50.067Z,11.07
2018-08-07T16:45:20.408Z,11.90
2018-08-07T16:47:49.875Z,10.60
2018-08-07T16:50:24.063Z,13.50
2018-08-07T16:52:54.524Z,11.40
2018-08-07T16:55:26.196Z,12.30
2018-08-07T16:57:55.515Z,11.87
2018-08-07T17:00:24.681Z,11.80
2018-08-07T17:02:53.760Z,12.83
2018-08-07T17:05:22.690Z,14.10
2018-08-07T17:07:51.630Z,13.40
2018-08-07T17:10:25.416Z,15.03
2018-08-07T17:12:54.344Z,17.70
2018-08-07T17:15:23.257Z,14.90
2018-08-07T17:17:52.335Z,14.47
2018-08-07T17:20:22.090Z,16.13
2018-08-07T17:22:51.631Z,14.77
2018-08-07T17:25:21.732Z,14.33
2018-08-07T17:27:51.319Z,15.93
2018-08-07T17:30:26.394Z,17.00
2018-08-07T17:32:55.378Z,15.43
2018-08-07T17:35:25.395Z,15.83
2018-08-07T17:37:56.428Z,14.43
2018-08-07T17:40:27.095Z,13.83
2018-08-07T17:42:56.388Z,16.23
2018-08-07T17:45:25.318Z,14.93
2018-08-07T17:47:54.106Z,14.97
2018-08-07T17:50:25.539Z,14.70
2018-08-07T17:52:57.433Z,13.33
2018-08-07T17:55:26.355Z,12.57
2018-08-07T17:57:56.988Z,12.57
2018-08-07T18:00:26.294Z,12.47
2018-08-07T18:02:55.326Z,11.93
2018-08-07T18:05:24.299Z,13.73
2018-08-07T18:07:55.456Z,11.40
2018-08-07T18:10:24.782Z,12.13
2018-08-07T18:12:53.858Z,13.87
2018-08-07T18:15:23.246Z,11.47
2018-08-07T18:17:52.419Z,13.17
2018-08-07T18:20:23.065Z,13.30
2018-08-07T18:22:52.182Z,12.93
2018-08-07T18:25:21.112Z,14.90
2018-08-07T18:27:50.132Z,13.37
2018-08-07T18:30:20.569Z,13.33
2018-08-07T18:32:49.624Z,13.63
2018-08-07T18:35:21.876Z,13.17
2018-08-07T18:37:50.902Z,12.90
2018-08-07T18:40:19.832Z,13.67
2018-08-07T18:42:48.902Z,15.40
2018-08-07T18:45:17.902Z,16.93
2018-08-07T18:47:46.907Z,17.33
2018-08-07T18:50:18.212Z,14.20
2018-08-07T18:52:47.142Z,13.20
2018-08-07T18:55:16.330Z,14.70
2018-08-07T18:57:46.679Z,15.87
2018-08-07T19:00:18.434Z,15.50
2018-08-07T19:02:47.358Z,14.77
2018-08-07T19:05:18.965Z,18.67
2018-08-07T19:07:54.542Z,18.57
2018-08-07T19:10:23.402Z,18.70
2018-08-07T19:12:52.398Z,17.53
2018-08-07T19:15:21.323Z,18.00
2018-08-07T19:17:50.246Z,17.63
2018-08-07T19:20:20.711Z,16.67
2018-08-07T19:22:49.763Z,16.97
2018-08-07T19:25:19.423Z,16.63
2018-08-07T19:27:50.693Z,18.60
2018-08-07T19:30:22.331Z,17.33
2018-08-07T19:32:51.915Z,17.90
2018-08-07T19:35:20.951Z,17.80
2018-08-07T19:37:50.135Z,16.83
2018-08-07T19:40:19.827Z,16.83
2018-08-07T19:42:49.533Z,17.47
2018-08-07T19:45:18.720Z,18.97
2018-08-07T19:47:47.763Z,17.73
2018-08-07T19:50:18.975Z,17.03
2018-08-07T19:52:48.013Z,17.83
2018-08-07T19:55:20.033Z,18.20
2018-08-07T19:57:50.190Z,17.70
2018-08-07T20:00:23.338Z,17.80
2018-08-07T20:02:52.386Z,16.33
2018-08-07T20:05:21.750Z,15.80
2018-08-07T20:07:51.428Z,17.20
2018-08-07T20:10:20.743Z,15.90
2018-08-07T20:12:49.718Z,14.90
2018-08-07T20:15:23.524Z,17.90
2018-08-07T20:17:54.391Z,18.67
2018-08-07T20:20:23.872Z,17.67
2018-08-07T20:22:54.221Z,17.00
2018-08-07T20:25:23.867Z,16.30
2018-08-07T20:27:52.844Z,15.70
2018-08-07T20:30:23.334Z,16.57
2018-08-07T20:32:53.947Z,16.73
2018-08-07T20:35:23.588Z,17.87
2018-08-07T20:37:53.201Z,16.33
2018-08-07T20:40:25.159Z,16.50
2018-08-07T20:42:56.016Z,16.90
2018-08-07T20:45:24.917Z,16.70
2018-08-07T20:47:56.607Z,16.50
2018-08-07T20:50:26.639Z,18.07
2018-08-07T20:52:56.039Z,17.13
2018-08-07T20:55:25.903Z,16.50
2018-08-07T20:57:54.698Z,16.20
2018-08-07T21:00:24.899Z,16.93
2018-08-07T21:02:53.844Z,16.40
2018-08-07T21:05:23.872Z,17.80
2018-08-07T21:07:52.975Z,17.47
2018-08-07T21:10:25.043Z,18.10
2018-08-07T21:12:54.427Z,16.70
2018-08-07T21:15:23.411Z,16.90
2018-08-07T21:17:52.323Z,17.00
2018-08-07T21:20:22.070Z,15.07
2018-08-07T21:22:51.173Z,13.50
2018-08-07T21:25:21.641Z,13.67
2018-08-07T21:27:52.369Z,12.70
2018-08-07T21:30:23.037Z,11.93
2018-08-07T21:32:51.910Z,12.93
2018-08-07T21:35:20.886Z,11.57
2018-08-07T21:37:49.864Z,12.90
2018-08-07T21:40:19.804Z,12.03
2018-08-07T21:42:49.820Z,12.90
2018-08-07T21:45:18.990Z,12.53
2018-08-07T21:47:47.818Z,13.07
2018-08-07T21:50:19.100Z,13.20
2018-08-07T21:52:48.051Z,12.63
2018-08-07T21:55:17.953Z,11.93
2018-08-07T21:57:46.995Z,12.07
2018-08-07T22:00:24.549Z,12.43
2018-08-07T22:02:53.422Z,13.10
2018-08-07T22:05:22.285Z,12.60
2018-08-07T22:07:51.142Z,12.10
2018-08-07T22:10:21.243Z,11.23
2018-08-07T22:12:50.155Z,12.57
2018-08-07T22:15:19.736Z,13.50
2018-08-07T22:17:48.672Z,11.57
2018-08-07T22:20:17.560Z,12.20
2018-08-07T22:22:46.461Z,12.43
2018-08-07T22:25:15.321Z,11.33
2018-08-07T22:27:44.190Z,11.70
2018-08-07T22:30:18.827Z,12.37
2018-08-07T22:32:48.211Z,12.43
2018-08-07T22:35:17.422Z,11.77
2018-08-07T22:37:46.451Z,11.20
2018-08-07T22:40:16.684Z,12.50
2018-08-07T22:42:45.667Z,11.70
2018-08-07T22:45:15.956Z,10.17
2018-08-07T22:47:44.824Z,11.57
2018-08-07T22:50:14.952Z,9.17
2018-08-07T22:52:44.577Z,10.47
2018-08-07T22:55:15.238Z,12.17
2018-08-07T22:57:44.085Z,11.73
2018-08-07T23:00:21.251Z,11.93
2018-08-07T23:02:49.950Z,12.00
2018-08-07T23:05:19.282Z,12.10
2018-08-07T23:07:48.119Z,11.23
2018-08-07T23:10:18.586Z,10.67
2018-08-07T23:12:47.500Z,12.90
2018-08-07T23:15:18.498Z,11.67
2018-08-07T23:17:47.598Z,11.50
2018-08-07T23:20:17.911Z,11.13
2018-08-07T23:22:46.815Z,12.40
2018-08-07T23:25:15.694Z,11.83
2018-08-07T23:27:44.558Z,12.00
2018-08-07T23:30:16.502Z,11.27
2018-08-07T23:32:45.518Z,12.27
2018-08-07T23:35:14.960Z,13.50
2018-08-07T23:37:43.934Z,11.47
2018-08-07T23:40:13.980Z,10.77
2018-08-07T23:42:43.356Z,11.13
2018-08-07T23:45:13.502Z,11.07
2018-08-07T23:47:42.528Z,11.20
2018-08-07T23:50:12.387Z,11.30
2018-08-07T23:52:41.459Z,12.80
2018-08-07T23:55:10.434Z,11.13
2018-08-07T23:57:39.228Z,10.37
